Time;durP1;ratioP1;P1;durP2;ratioP2;P2;SDS_P1;SDS_P2;PMS_P1;PMS_P2;Temp;Humidity;BMP_temperature;BMP_pressure;BME280_temperature;BME280_humidity;BME280_pressure;Samples;Min_cycle;Max_cycle;Signal;HPM_P1;HPM_P2
2024/04/15 00:01:06;;;;;;;15.30;2.55;;;;;;;;;;6376197;22;20013;-86
2024/04/15 00:03:48;;;;;;;12.02;2.67;;;;;;;;;;6375570;22;20088;-86
2024/04/15 00:06:22;;;;;;;20.35;3.10;;;;;;;;;;6377486;22;20483;-86
2024/04/15 00:08:56;;;;;;;21.50;3.22;;;;;;;;;;6379492;22;20082;-86
2024/04/15 00:11:23;;;;;;;27.80;3.00;;;;;;;;;;6378861;22;20004;-86
2024/04/15 00:13:51;;;;;;;14.93;3.05;;;;;;;;;;6376937;22;20009;-86
2024/04/15 00:16:32;;;;;;;20.30;3.38;;;;;;;;;;6380230;22;20011;-85
2024/04/15 00:19:06;;;;;;;21.70;3.28;;;;;;;;;;6378429;22;20028;-86
2024/04/15 00:21:40;;;;;;;29.75;3.63;;;;;;;;;;6379354;22;20003;-87
2024/04/15 00:24:08;;;;;;;28.75;3.55;;;;;;;;;;6378685;22;20003;-86
2024/04/15 00:26:42;;;;;;;19.13;3.20;;;;;;;;;;6377472;22;20378;-85
2024/04/15 00:29:09;;;;;;;;;;;;;;;;;;6377331;22;20007;-85
2024/04/15 00:31:37;;;;;;;21.90;3.28;;;;;;;;;;6378147;22;19935;-86
2024/04/15 00:34:11;;;;;;;25.85;4.55;;;;;;;;;;6376965;22;20019;-85
2024/04/15 00:36:39;;;;;;;23.02;3.63;;;;;;;;;;6377816;22;20003;-86
2024/04/15 00:39:06;;;;;;;;;;;;;;;;;;6379750;22;20014;-85
2024/04/15 00:41:40;;;;;;;28.70;2.85;;;;;;;;;;6375103;22;20067;-85
2024/04/15 00:44:08;;;;;;;22.13;2.85;;;;;;;;;;6375158;22;20208;-85
2024/04/15 00:46:35;;;;;;;20.98;4.40;;;;;;;;;;6378756;22;20059;-85
2024/04/15 00:49:11;;;;;;;25.58;3.38;;;;;;;;;;6378232;22;20016;-85
2024/04/15 00:51:39;;;;;;;17.20;3.22;;;;;;;;;;6373999;22;20007;-86
2024/04/15 00:54:13;;;;;;;36.63;4.13;;;;;;;;;;6376641;22;20000;-86
2024/04/15 00:56:41;;;;;;;22.05;3.60;;;;;;;;;;6378945;22;20019;-86
2024/04/15 00:59:15;;;;;;;28.13;3.30;;;;;;;;;;6376532;22;20011;-85
2024/04/15 01:01:43;;;;;;;17.20;3.17;;;;;;;;;;6375862;22;20347;-85
2024/04/15 01:04:10;;;;;;;30.70;3.63;;;;;;;;;;6373627;22;19999;-85
2024/04/15 01:06:52;;;;;;;24.98;3.65;;;;;;;;;;6378392;22;20011;-85
2024/04/15 01:09:19;;;;;;;17.52;3.65;;;;;;;;;;6376570;22;20024;-85
2024/04/15 01:11:53;;;;;;;25.05;3.33;;;;;;;;;;6378738;22;20056;-85
2024/04/15 01:14:20;;;;;;;;;;;;;;;;;;6377474;22;20421;-85
2024/04/15 01:16:49;;;;;;;27.13;2.95;;;;;;;;;;6376678;22;20110;-85
2024/04/15 01:19:30;;;;;;;24.25;3.55;;;;;;;;;;6378136;22;20039;-86
2024/04/15 01:21:57;;;;;;;39.10;3.72;;;;;;;;;;6376641;22;20373;-86
2024/04/15 01:24:32;;;;;;;40.10;3.63;;;;;;;;;;6375883;22;20058;-85
2024/04/15 01:26:59;;;;;;;22.70;3.65;;;;;;;;;;6377915;22;20011;-85
2024/04/15 01:29:27;;;;;;;23.27;3.15;;;;;;;;;;6374055;22;20011;-85
2024/04/15 01:32:01;;;;;;;25.42;4.00;;;;;;;;;;6375666;22;20011;-88
2024/04/15 01:34:29;;;;;;;;;;;;;;;;;;6376484;22;20003;-85
2024/04/15 01:37:02;;;;;;;25.15;3.22;;;;;;;;;;6376490;22;19995;-86
2024/04/15 01:39:29;;;;;;;;;;;;;;;;;;6378175;22;19999;-86
2024/04/15 01:41:57;;;;;;;20.48;2.78;;;;;;;;;;6375240;22;20227;-85
2024/04/15 01:44:37;;;;;;;37.50;4.43;;;;;;;;;;6375568;22;20007;-85
2024/04/15 01:47:04;;;;;;;20.90;3.85;;;;;;;;;;6376626;22;20003;-86
2024/04/15 01:49:38;;;;;;;21.33;3.45;;;;;;;;;;6377229;22;20011;-85
2024/04/15 01:52:08;;;;;;;29.90;4.18;;;;;;;;;;6375389;22;20019;-85
2024/04/15 01:54:43;;;;;;;17.88;3.50;;;;;;;;;;6377505;22;20055;-85
2024/04/15 01:57:11;;;;;;;25.15;3.60;;;;;;;;;;6376435;22;20022;-85
2024/04/15 01:59:38;;;;;;;16.73;3.42;;;;;;;;;;6377789;22;20443;-85
2024/04/15 02:02:13;;;;;;;26.65;3.75;;;;;;;;;;6377531;22;20008;-86
2024/04/15 02:04:40;;;;;;;;;;;;;;;;;;6379287;22;19999;-86
2024/04/15 02:07:21;;;;;;;26.50;3.60;;;;;;;;;;6378442;22;19923;-85
2024/04/15 02:09:48;;;;;;;19.90;3.40;;;;;;;;;;6380003;22;20010;-85
2024/04/15 02:12:22;;;;;;;27.60;3.90;;;;;;;;;;6379473;22;20019;-86
2024/04/15 02:14:50;;;;;;;27.95;3.60;;;;;;;;;;6379153;22;20007;-86
2024/04/15 02:17:17;;;;;;;28.13;4.07;;;;;;;;;;6380169;22;19999;-86
2024/04/15 02:19:58;;;;;;;21.88;3.35;;;;;;;;;;6378670;22;20010;-85
2024/04/15 02:22:25;;;;;;;28.73;3.95;;;;;;;;;;6379034;22;20003;-86
2024/04/15 02:24:59;;;;;;;23.10;3.20;;;;;;;;;;6379386;22;20007;-86
2024/04/15 02:27:27;;;;;;;23.30;4.28;;;;;;;;;;6380916;22;20043;-85
2024/04/15 02:29:54;;;;;;;28.98;4.22;;;;;;;;;;6378676;22;20011;-85
2024/04/15 02:32:28;;;;;;;23.23;3.47;;;;;;;;;;6378850;22;20015;-85
2024/04/15 02:34:56;;;;;;;;;;;;;;;;;;6376374;22;20022;-85
2024/04/15 02:37:30;;;;;;;25.45;3.60;;;;;;;;;;6377660;22;19923;-85
2024/04/15 02:39:58;;;;;;;25.15;3.33;;;;;;;;;;6377025;22;20003;-85
2024/04/15 02:42:25;;;;;;;;;;;;;;;;;;6378966;22;20018;-86
2024/04/15 02:44:59;;;;;;;18.23;3.08;;;;;;;;;;6379587;22;19935;-85
2024/04/15 02:47:27;;;;;;;27.35;3.50;;;;;;;;;;6376367;22;20015;-86
2024/04/15 02:49:54;;;;;;;27.08;3.47;;;;;;;;;;6377752;22;20200;-85
2024/04/15 02:52:29;;;;;;;24.38;3.72;;;;;;;;;;6376855;22;20003;-85
2024/04/15 02:54:56;;;;;;;28.05;4.78;;;;;;;;;;6377524;22;20028;-85
2024/04/15 02:57:23;;;;;;;25.98;3.90;;;;;;;;;;6379102;22;20078;-86
2024/04/15 02:59:57;;;;;;;20.90;3.35;;;;;;;;;;6376412;22;20003;-85
2024/04/15 03:02:24;;;;;;;25.00;3.15;;;;;;;;;;6378576;22;20154;-85
2024/04/15 03:05:05;;;;;;;21.35;4.45;;;;;;;;;;6378204;22;20023;-86
2024/04/15 03:07:39;;;;;;;18.95;3.92;;;;;;;;;;6376823;22;20021;-86
2024/04/15 03:10:12;;;;;;;32.03;4.28;;;;;;;;;;6376760;22;20015;-85
2024/04/15 03:12:40;;;;;;;21.88;3.70;;;;;;;;;;6376327;22;20014;-86
2024/04/15 03:15:07;;;;;;;;;;;;;;;;;;6378382;22;20017;-85
2024/04/15 03:17:41;;;;;;;22.00;3.65;;;;;;;;;;6376648;22;19999;-85
2024/04/15 03:20:16;;;;;;;22.70;4.03;;;;;;;;;;6375874;22;19999;-85
2024/04/15 03:22:49;;;;;;;30.33;4.03;;;;;;;;;;6375707;22;20082;-86
2024/04/15 03:25:23;;;;;;;25.17;4.00;;;;;;;;;;6375808;22;20013;-86
2024/04/15 03:27:51;;;;;;;27.48;3.95;;;;;;;;;;6379126;22;20014;-86
2024/04/15 03:30:24;;;;;;;19.58;3.65;;;;;;;;;;6376989;22;20027;-86
2024/04/15 03:32:51;;;;;;;29.85;4.28;;;;;;;;;;6376407;22;20064;-85
2024/04/15 03:35:19;;;;;;;33.63;5.43;;;;;;;;;;6376238;22;20003;-86
2024/04/15 03:37:53;;;;;;;12.45;3.35;;;;;;;;;;6378888;22;20007;-85
2024/04/15 03:40:20;;;;;;;;;;;;;;;;;;6380137;22;20043;-86
2024/04/15 03:42:54;;;;;;;17.40;3.50;;;;;;;;;;6376640;22;19930;-87
2024/04/15 03:45:22;;;;;;;25.65;4.10;;;;;;;;;;6374654;22;19999;-86
2024/04/15 03:47:49;;;;;;;29.23;3.70;;;;;;;;;;6376496;22;20058;-86
2024/04/15 03:50:24;;;;;;;20.45;3.65;;;;;;;;;;6377735;22;20000;-86
2024/04/15 03:52:51;;;;;;;17.67;4.38;;;;;;;;;;6376238;22;20011;-86
2024/04/15 03:55:25;;;;;;;29.15;3.80;;;;;;;;;;6376684;22;20357;-85
2024/04/15 03:57:53;;;;;;;23.48;3.90;;;;;;;;;;6374256;22;20075;-86
2024/04/15 04:00:20;;;;;;;;;;;;;;;;;;6376271;22;19995;-85
2024/04/15 04:02:54;;;;;;;36.92;4.55;;;;;;;;;;6371641;22;19994;-86
2024/04/15 04:05:29;;;;;;;;;;;;;;;;;;6369238;22;20003;-86
2024/04/15 04:08:10;;;;;;;24.15;3.90;;;;;;;;;;6374471;22;19929;-86
2024/04/15 04:10:43;;;;;;;25.27;4.25;;;;;;;;;;6372988;22;20500;-86
2024/04/15 04:13:11;;;;;;;;;;;;;;;;;;6375285;22;20436;-86
2024/04/15 04:15:38;;;;;;;26.48;5.03;;;;;;;;;;6372571;22;20334;-86
2024/04/15 04:18:19;;;;;;;38.22;4.35;;;;;;;;;;6374033;22;20394;-86
2024/04/15 04:20:46;;;;;;;30.77;4.35;;;;;;;;;;6372242;22;20010;-85
2024/04/15 04:23:20;;;;;;;35.25;4.30;;;;;;;;;;6373109;22;20088;-86
2024/04/15 04:25:48;;;;;;;29.63;3.83;;;;;;;;;;6371816;22;20359;-87
2024/04/15 04:28:21;;;;;;;35.70;4.38;;;;;;;;;;6372895;22;20003;-85
2024/04/15 04:30:49;;;;;;;26.23;4.30;;;;;;;;;;6373852;22;20019;-86
2024/04/15 04:33:16;;;;;;;;;;;;;;;;;;6371175;22;20022;-86
2024/04/15 04:35:50;;;;;;;26.35;3.90;;;;;;;;;;6373730;22;19934;-86
2024/04/15 04:38:18;;;;;;;20.88;4.00;;;;;;;;;;6371959;22;20055;-86
2024/04/15 04:40:58;;;;;;;19.20;3.75;;;;;;;;;;6372759;22;20369;-86
2024/04/15 04:43:25;;;;;;;24.95;4.55;;;;;;;;;;6369279;22;20077;-86
2024/04/15 04:46:07;;;;;;;38.20;4.93;;;;;;;;;;6369947;22;20003;-86
2024/04/15 04:48:34;;;;;;;32.10;4.65;;;;;;;;;;6371793;22;19999;-86
2024/04/15 04:51:09;;;;;;;29.27;4.38;;;;;;;;;;6369928;22;19999;-86
2024/04/15 04:53:37;;;;;;;28.80;3.80;;;;;;;;;;6371172;22;20184;-86
2024/04/15 04:56:14;;;;;;;21.15;3.72;;;;;;;;;;6370513;22;20003;-85
2024/04/15 04:58:49;;;;;;;20.50;3.45;;;;;;;;;;6369995;22;20015;-85
2024/04/15 05:01:17;;;;;;;24.35;4.45;;;;;;;;;;6371063;22;20014;-86
2024/04/15 05:03:49;;;;;;;23.83;3.80;;;;;;;;;;6371529;22;19995;-85
2024/04/15 05:06:30;;;;;;;24.65;3.63;;;;;;;;;;6371443;22;20434;-85
2024/04/15 05:08:57;;;;;;;22.27;4.60;;;;;;;;;;6371565;22;20007;-86
2024/04/15 05:11:34;;;;;;;24.70;3.92;;;;;;;;;;6374369;22;20854;-85
2024/04/15 05:14:01;;;;;;;21.92;3.60;;;;;;;;;;6374359;22;20055;-85
2024/04/15 05:16:29;;;;;;;25.45;4.05;;;;;;;;;;6372335;22;20435;-85
2024/04/15 05:19:10;;;;;;;21.00;3.58;;;;;;;;;;6371887;22;20004;-85
2024/04/15 05:21:44;;;;;;;20.48;4.70;;;;;;;;;;6372525;22;20003;-86
2024/04/15 05:24:18;;;;;;;23.80;4.30;;;;;;;;;;6372762;22;20010;-86
2024/04/15 05:26:45;;;;;;;22.77;6.88;;;;;;;;;;6371172;22;19995;-86
2024/04/15 05:29:13;;;;;;;27.30;6.18;;;;;;;;;;6372140;22;20055;-85
2024/04/15 05:31:48;;;;;;;16.83;3.97;;;;;;;;;;6373416;22;20011;-86
2024/04/15 05:34:16;;;;;;;24.65;3.72;;;;;;;;;;6373910;22;20010;-85
2024/04/15 05:36:49;;;;;;;25.92;3.95;;;;;;;;;;6375031;22;20087;-85
2024/04/15 05:39:17;;;;;;;33.58;5.22;;;;;;;;;;6373335;22;20011;-85
2024/04/15 05:41:44;;;;;;;;;;;;;;;;;;6373904;22;20027;-86
2024/04/15 05:44:18;;;;;;;13.65;3.60;;;;;;;;;;6374156;22;19923;-86
2024/04/15 05:46:50;;;;;;;19.38;3.70;;;;;;;;;;6375555;22;20081;-85
2024/04/15 05:49:18;;;;;;;21.25;4.00;;;;;;;;;;6374857;22;20023;-85
2024/04/15 05:51:51;;;;;;;20.92;4.13;;;;;;;;;;6376296;22;20011;-85
2024/04/15 05:54:19;;;;;;;18.40;3.38;;;;;;;;;;6374631;22;20023;-85
2024/04/15 05:56:52;;;;;;;19.20;3.60;;;;;;;;;;6373782;22;20414;-85
2024/04/15 05:59:20;;;;;;;15.32;4.45;;;;;;;;;;6374435;22;19999;-86
2024/04/15 06:01:47;;;;;;;13.82;3.75;;;;;;;;;;6374733;22;20381;-85
2024/04/15 06:04:28;;;;;;;18.38;4.32;;;;;;;;;;6373408;22;20003;-85
2024/04/15 06:07:02;;;;;;;26.35;4.70;;;;;;;;;;6373744;22;20051;-85
2024/04/15 06:09:39;;;;;;;27.00;4.13;;;;;;;;;;6373242;22;19995;-85
2024/04/15 06:12:07;;;;;;;13.68;3.22;;;;;;;;;;6371620;22;20335;-87
2024/04/15 06:14:34;;;;;;;17.80;4.18;;;;;;;;;;6373595;22;20501;-85
2024/04/15 06:17:08;;;;;;;19.15;3.88;;;;;;;;;;6373002;22;20003;-85
2024/04/15 06:19:36;;;;;;;13.77;3.10;;;;;;;;;;6374569;22;20036;-85
2024/04/15 06:22:17;;;;;;;16.10;3.55;;;;;;;;;;6375772;22;20087;-85
2024/04/15 06:24:45;;;;;;;12.68;3.35;;;;;;;;;;6375149;22;20004;-85
2024/04/15 06:27:19;;;;;;;18.83;3.80;;;;;;;;;;6376188;22;20008;-85
2024/04/15 06:29:47;;;;;;;21.40;3.53;;;;;;;;;;6373650;22;20017;-85
2024/04/15 06:32:14;;;;;;;14.68;3.10;;;;;;;;;;6376453;22;20011;-85
2024/04/15 06:34:48;;;;;;;17.55;3.28;;;;;;;;;;6375181;22;20474;-85
2024/04/15 06:37:16;;;;;;;14.68;2.80;;;;;;;;;;6375328;22;20073;-85
2024/04/15 06:39:43;;;;;;;18.50;3.35;;;;;;;;;;6371960;22;20906;-85
2024/04/15 06:42:17;;;;;;;9.40;2.88;;;;;;;;;;6372691;22;20054;-85
2024/04/15 06:44:45;;;;;;;;;;;;;;;;;;6374162;22;20027;-85
2024/04/15 06:47:18;;;;;;;15.35;3.00;;;;;;;;;;6373521;22;20003;-85
2024/04/15 06:49:45;;;;;;;11.30;2.80;;;;;;;;;;6373049;22;20014;-85
2024/04/15 06:52:13;;;;;;;10.80;3.35;;;;;;;;;;6374611;22;20433;-85
2024/04/15 06:54:51;;;;;;;14.52;2.65;;;;;;;;;;6372600;22;20013;-85
2024/04/15 06:57:19;;;;;;;18.45;2.75;;;;;;;;;;6371412;22;20008;-85
2024/04/15 06:59:46;;;;;;;13.75;2.80;;;;;;;;;;6371422;22;20015;-86
2024/04/15 07:02:23;;;;;;;10.05;2.25;;;;;;;;;;6371231;22;20018;-85
2024/04/15 07:05:00;;;;;;;15.88;2.90;;;;;;;;;;6373196;22;20006;-86
2024/04/15 07:07:34;;;;;;;10.55;2.88;;;;;;;;;;6372160;22;20310;-85
2024/04/15 07:10:02;;;;;;;;;;;;;;;;;;6372746;22;20007;-85
2024/04/15 07:12:29;;;;;;;15.77;3.33;;;;;;;;;;6371171;22;20257;-85
2024/04/15 07:15:03;;;;;;;11.52;2.92;;;;;;;;;;6370766;22;20286;-85
2024/04/15 07:17:31;;;;;;;11.75;2.33;;;;;;;;;;6372823;22;20010;-85
2024/04/15 07:19:58;;;;;;;16.30;2.08;;;;;;;;;;6372748;22;20321;-85
2024/04/15 07:22:39;;;;;;;9.90;2.17;;;;;;;;;;6372345;22;20011;-85
2024/04/15 07:25:06;;;;;;;9.05;2.20;;;;;;;;;;6370082;22;20019;-86
2024/04/15 07:27:40;;;;;;;10.13;2.28;;;;;;;;;;6373287;22;20039;-86
2024/04/15 07:30:08;;;;;;;10.32;2.28;;;;;;;;;;6372599;22;20408;-86
2024/04/15 07:32:38;;;;;;;10.90;2.05;;;;;;;;;;6371705;22;20338;-85
2024/04/15 07:35:13;;;;;;;7.85;2.13;;;;;;;;;;6373803;22;20019;-85
2024/04/15 07:37:40;;;;;;;;;;;;;;;;;;6372075;22;20513;-86
2024/04/15 07:40:08;;;;;;;9.65;2.33;;;;;;;;;;6373772;22;19923;-86
2024/04/15 07:42:41;;;;;;;10.52;1.98;;;;;;;;;;6370427;22;20000;-86
2024/04/15 07:45:11;;;;;;;9.38;1.80;;;;;;;;;;6373114;22;20083;-85
2024/04/15 07:47:39;;;;;;;11.98;2.55;;;;;;;;;;6371236;22;20444;-86
2024/04/15 07:50:13;;;;;;;8.10;1.98;;;;;;;;;;6373659;22;20015;-85
2024/04/15 07:52:41;;;;;;;7.82;1.75;;;;;;;;;;6372532;22;20007;-86
2024/04/15 07:55:14;;;;;;;9.98;2.22;;;;;;;;;;6372560;22;20011;-86
2024/04/15 07:57:42;;;;;;;4.45;2.25;;;;;;;;;;6374524;22;19999;-86
2024/04/15 08:00:09;;;;;;;8.73;1.73;;;;;;;;;;6373321;22;20017;-85
2024/04/15 08:02:44;;;;;;;7.35;1.80;;;;;;;;;;6371610;22;20563;-86
2024/04/15 08:05:18;;;;;;;7.88;2.30;;;;;;;;;;6373491;22;20003;-86
2024/04/15 08:07:59;;;;;;;9.98;2.53;;;;;;;;;;6373797;22;20039;-86
2024/04/15 08:10:26;;;;;;;12.05;2.25;;;;;;;;;;6370743;22;20019;-85
2024/04/15 08:13:00;;;;;;;5.25;1.65;;;;;;;;;;6373358;22;20006;-86
2024/04/15 08:15:30;;;;;;;4.47;1.85;;;;;;;;;;6370856;22;20003;-86
2024/04/15 08:17:58;;;;;;;7.30;1.67;;;;;;;;;;6370941;22;20003;-85
2024/04/15 08:20:32;;;;;;;7.47;1.70;;;;;;;;;;6373173;22;20018;-85
2024/04/15 08:23:06;;;;;;;5.75;1.90;;;;;;;;;;6372052;22;20080;-86
2024/04/15 08:25:42;;;;;;;6.57;1.63;;;;;;;;;;6371189;22;20078;-86
2024/04/15 08:28:09;;;;;;;10.20;2.45;;;;;;;;;;6374477;22;20089;-86
2024/04/15 08:30:37;;;;;;;4.95;1.33;;;;;;;;;;6370071;22;20025;-86
2024/04/15 08:33:13;;;;;;;5.15;1.60;;;;;;;;;;6371276;22;20013;-86
2024/04/15 08:35:40;;;;;;;10.23;1.88;;;;;;;;;;6373794;22;20007;-87
2024/04/15 08:38:07;;;;;;;3.80;1.85;;;;;;;;;;6371205;22;20023;-87
2024/04/15 08:41:01;;;;;;;5.57;2.03;;;;;;;;;;6371418;22;19999;-86
2024/04/15 08:43:28;;;;;;;6.63;2.10;;;;;;;;;;6371121;22;20282;-86
2024/04/15 08:46:03;;;;;;;5.88;1.27;;;;;;;;;;6371727;22;20007;-86
2024/04/15 08:48:32;;;;;;;7.68;2.00;;;;;;;;;;6369887;22;19999;-87
2024/04/15 08:51:00;;;;;;;5.50;1.90;;;;;;;;;;6371044;22;20003;-86
2024/04/15 08:53:34;;;;;;;6.07;2.22;;;;;;;;;;6370714;22;20163;-86
2024/04/15 08:56:02;;;;;;;;;;;;;;;;;;6373349;22;20055;-86
2024/04/15 08:58:29;;;;;;;5.63;1.77;;;;;;;;;;6373647;22;19987;-87
2024/04/15 09:01:04;;;;;;;6.00;2.15;;;;;;;;;;6372308;22;20003;-86
2024/04/15 09:03:32;;;;;;;7.82;1.88;;;;;;;;;;6370029;22;19999;-86
2024/04/15 09:05:59;;;;;;;5.68;1.80;;;;;;;;;;6367961;22;20021;-86
2024/04/15 09:08:40;;;;;;;4.82;1.80;;;;;;;;;;6373215;22;20011;-86
2024/04/15 09:11:07;;;;;;;13.48;1.70;;;;;;;;;;6376007;22;20014;-86
2024/04/15 09:13:41;;;;;;;6.38;1.50;;;;;;;;;;6375302;22;20313;-87
2024/04/15 09:16:09;;;;;;;4.47;1.30;;;;;;;;;;6374558;22;20321;-87
2024/04/15 09:18:37;;;;;;;5.28;1.40;;;;;;;;;;6374635;22;20094;-86
2024/04/15 09:21:10;;;;;;;3.03;1.13;;;;;;;;;;6375022;22;20083;-86
2024/04/15 09:23:44;;;;;;;7.35;1.58;;;;;;;;;;6372531;22;20439;-86
2024/04/15 09:26:17;;;;;;;5.43;1.30;;;;;;;;;;6374468;22;20007;-86
2024/04/15 09:28:45;;;;;;;4.63;0.90;;;;;;;;;;6372652;22;20436;-87
2024/04/15 09:31:19;;;;;;;2.72;1.42;;;;;;;;;;6372970;22;20034;-86
2024/04/15 09:33:46;;;;;;;6.43;1.50;;;;;;;;;;6374496;22;19995;-86
2024/04/15 09:36:14;;;;;;;7.13;1.73;;;;;;;;;;6372111;22;20003;-86
2024/04/15 09:38:49;;;;;;;6.20;1.38;;;;;;;;;;6374760;22;20011;-87
2024/04/15 09:41:16;;;;;;;3.83;1.75;;;;;;;;;;6372623;22;20079;-87
2024/04/15 09:43:53;;;;;;;15.18;1.73;;;;;;;;;;6372518;22;20047;-86
2024/04/15 09:46:21;;;;;;;5.60;1.50;;;;;;;;;;6374193;22;20168;-86
2024/04/15 09:48:49;;;;;;;5.50;1.60;;;;;;;;;;6374258;22;20039;-87
2024/04/15 09:51:23;;;;;;;3.45;1.30;;;;;;;;;;6374381;22;20003;-87
2024/04/15 09:53:52;;;;;;;7.13;1.48;;;;;;;;;;6374425;22;20003;-87
2024/04/15 09:56:29;;;;;;;5.30;1.55;;;;;;;;;;6373252;22;20086;-88
2024/04/15 09:58:57;;;;;;;6.13;1.52;;;;;;;;;;6373590;22;20024;-86
2024/04/15 10:01:38;;;;;;;5.13;1.45;;;;;;;;;;6372763;22;20340;-87
2024/04/15 10:04:21;;;;;;;7.68;1.75;;;;;;;;;;6372312;22;20007;-87
2024/04/15 10:06:57;;;;;;;5.18;1.10;;;;;;;;;;6369655;22;20011;-87
2024/04/15 10:09:35;;;;;;;8.45;1.63;;;;;;;;;;6375035;22;20015;-87
2024/04/15 10:12:02;;;;;;;3.28;1.50;;;;;;;;;;6374620;22;20078;-87
2024/04/15 10:14:30;;;;;;;;;;;;;;;;;;6375535;22;20017;-86
2024/04/15 10:17:06;;;;;;;5.78;1.48;;;;;;;;;;6376739;22;19930;-88
2024/04/15 10:19:34;;;;;;;5.20;1.33;;;;;;;;;;6374408;22;20011;-87
2024/04/15 10:22:09;;;;;;;3.65;1.70;;;;;;;;;;6374319;22;20380;-87
2024/04/15 10:24:43;;;;;;;6.32;1.27;;;;;;;;;;6372987;22;20035;-87
2024/04/15 10:27:17;;;;;;;7.75;1.60;;;;;;;;;;6376180;22;20018;-87
2024/04/15 10:29:45;;;;;;;2.72;1.15;;;;;;;;;;6374815;22;20205;-88
2024/04/15 10:32:13;;;;;;;2.97;1.10;;;;;;;;;;6375538;22;20050;-87
2024/04/15 10:34:48;;;;;;;4.55;1.40;;;;;;;;;;6376974;22;20429;-88
2024/04/15 10:37:16;;;;;;;6.82;1.70;;;;;;;;;;6376745;22;20447;-87
2024/04/15 10:39:51;;;;;;;6.35;1.40;;;;;;;;;;6376719;22;20003;-87
2024/04/15 10:42:18;;;;;;;2.03;0.98;;;;;;;;;;6375528;22;19999;-87
2024/04/15 10:44:46;;;;;;;8.20;1.30;;;;;;;;;;6376535;22;20080;-87
2024/04/15 10:47:21;;;;;;;4.85;1.00;;;;;;;;;;6375348;22;20209;-87
2024/04/15 10:49:48;;;;;;;5.93;1.42;;;;;;;;;;6376311;22;20199;-88
2024/04/15 10:52:22;;;;;;;4.50;1.45;;;;;;;;;;6374845;22;19999;-88
2024/04/15 10:54:50;;;;;;;;;;;;;;;;;;6375220;22;20334;-88
2024/04/15 10:57:23;;;;;;;4.13;1.38;;;;;;;;;;6372658;22;19934;-88
2024/04/15 10:59:51;;;;;;;4.38;1.70;;;;;;;;;;6374329;22;20019;-87
2024/04/15 11:02:20;;;;;;;3.35;1.20;;;;;;;;;;6374181;22;19995;-88
2024/04/15 11:05:01;;;;;;;6.50;1.10;;;;;;;;;;6372535;22;20429;-88
2024/04/15 11:07:35;;;;;;;4.78;1.30;;;;;;;;;;6373452;22;20014;-88
2024/04/15 11:10:09;;;;;;;4.25;1.42;;;;;;;;;;6374115;22;20438;-87
2024/04/15 11:12:37;;;;;;;5.80;1.42;;;;;;;;;;6373638;22;20321;-88
2024/04/15 11:15:11;;;;;;;3.70;1.25;;;;;;;;;;6373341;22;20428;-87
2024/04/15 11:17:45;;;;;;;4.40;1.27;;;;;;;;;;6374602;22;20574;-88
2024/04/15 11:20:26;;;;;;;4.35;1.23;;;;;;;;;;6371695;22;20003;-90
2024/04/15 11:22:53;;;;;;;4.97;1.33;;;;;;;;;;6372567;22;20007;-87
2024/04/15 11:25:34;;;;;;;6.05;1.70;;;;;;;;;;6372640;22;19999;-88
2024/04/15 11:28:03;;;;;;;7.18;1.67;;;;;;;;;;6372224;22;20027;-87
2024/04/15 11:30:38;;;;;;;7.93;1.85;;;;;;;;;;6373973;22;19999;-87
2024/04/15 11:33:12;;;;;;;4.95;1.55;;;;;;;;;;6371746;22;20070;-87
2024/04/15 11:35:50;;;;;;;4.28;1.48;;;;;;;;;;6371179;22;20003;-87
2024/04/15 11:38:26;;;;;;;5.80;0.85;;;;;;;;;;6373728;22;20014;-88
2024/04/15 11:40:54;;;;;;;6.65;1.65;;;;;;;;;;6373014;22;20053;-88
2024/04/15 11:43:21;;;;;;;7.75;1.63;;;;;;;;;;6370487;22;20009;-88
2024/04/15 11:45:56;;;;;;;5.95;1.58;;;;;;;;;;6372303;22;20007;-87
2024/04/15 11:48:27;;;;;;;6.38;1.83;;;;;;;;;;6371874;22;20320;-87
2024/04/15 11:51:01;;;;;;;5.43;1.35;;;;;;;;;;6372023;22;19999;-87
2024/04/15 11:53:29;;;;;;;7.95;1.55;;;;;;;;;;6372735;22;20003;-88
2024/04/15 11:56:04;;;;;;;7.95;1.45;;;;;;;;;;6373408;22;20015;-89
2024/04/15 11:58:31;;;;;;;1.42;1.00;;;;;;;;;;6370866;22;20011;-88
2024/04/15 12:00:59;;;;;;;4.35;1.00;;;;;;;;;;6373287;22;20000;-87
2024/04/15 12:03:37;;;;;;;8.05;1.52;;;;;;;;;;6373269;22;20015;-88
2024/04/15 12:06:11;;;;;;;;;;;;;;;;;;6375723;22;19996;-88
2024/04/15 12:08:45;;;;;;;4.85;1.55;;;;;;;;;;6373050;22;19935;-87
2024/04/15 12:11:13;;;;;;;;;;;;;;;;;;6372437;22;20011;-88
2024/04/15 12:13:40;;;;;;;4.07;1.45;;;;;;;;;;6373039;22;19930;-87
2024/04/15 12:16:14;;;;;;;7.90;1.75;;;;;;;;;;6371764;22;20003;-88
2024/04/15 12:18:42;;;;;;;;;;;;;;;;;;6372725;22;20021;-88
2024/04/15 12:21:15;;;;;;;5.30;1.88;;;;;;;;;;6369508;22;20256;-88
2024/04/15 12:23:43;;;;;;;6.50;1.88;;;;;;;;;;6371665;22;20018;-87
2024/04/15 12:26:24;;;;;;;5.95;1.70;;;;;;;;;;6372172;22;20079;-87
2024/04/15 12:28:58;;;;;;;5.10;1.63;;;;;;;;;;6373191;22;20015;-87
2024/04/15 12:31:25;;;;;;;2.72;1.33;;;;;;;;;;6372329;22;19999;-88
2024/04/15 12:33:59;;;;;;;7.95;2.03;;;;;;;;;;6372786;22;20039;-87
2024/04/15 12:36:27;;;;;;;;;;;;;;;;;;6374983;22;20373;-87
2024/04/15 12:38:54;;;;;;;6.45;1.50;;;;;;;;;;6369744;22;19923;-87
2024/04/15 12:41:28;;;;;;;7.20;1.92;;;;;;;;;;6373484;22;20056;-88
2024/04/15 12:43:56;;;;;;;5.75;2.10;;;;;;;;;;6369818;22;20450;-87
2024/04/15 12:46:31;;;;;;;5.22;1.63;;;;;;;;;;6370443;22;19999;-88
2024/04/15 12:48:59;;;;;;;;;;;;;;;;;;6373027;22;20239;-88
2024/04/15 12:51:26;;;;;;;10.32;1.95;;;;;;;;;;6371311;22;19932;-88
2024/04/15 12:54:00;;;;;;;5.82;1.83;;;;;;;;;;6372180;22;20432;-87
2024/04/15 12:56:28;;;;;;;4.22;1.40;;;;;;;;;;6373117;22;20013;-88
2024/04/15 12:58:56;;;;;;;4.95;1.80;;;;;;;;;;6371099;22;20365;-87
2024/04/15 13:01:30;;;;;;;5.40;1.98;;;;;;;;;;6371510;22;20069;-87
2024/04/15 13:03:57;;;;;;;7.88;2.15;;;;;;;;;;6372564;22;20010;-87
2024/04/15 13:06:25;;;;;;;7.35;2.10;;;;;;;;;;6372269;22;20010;-88
2024/04/15 13:08:59;;;;;;;9.63;1.90;;;;;;;;;;6373558;22;20004;-87
2024/04/15 13:11:27;;;;;;;5.82;2.00;;;;;;;;;;6371627;22;20079;-87
2024/04/15 13:14:01;;;;;;;4.63;1.67;;;;;;;;;;6372303;22;20432;-88
2024/04/15 13:16:28;;;;;;;;;;;;;;;;;;6371348;22;20016;-88
2024/04/15 13:18:55;;;;;;;6.72;1.80;;;;;;;;;;6372901;22;19931;-88
2024/04/15 13:21:36;;;;;;;9.98;1.90;;;;;;;;;;6371920;22;19999;-85
2024/04/15 13:24:04;;;;;;;7.70;1.85;;;;;;;;;;6370166;22;20022;-88
2024/04/15 13:26:45;;;;;;;9.68;1.98;;;;;;;;;;6371522;22;19999;-88
2024/04/15 13:29:12;;;;;;;7.07;1.98;;;;;;;;;;6370715;22;20074;-87
2024/04/15 13:31:47;;;;;;;4.97;1.70;;;;;;;;;;6370888;22;20044;-87
2024/04/15 13:34:39;;;;;;;8.10;1.63;;;;;;;;;;6371550;22;20441;-88
2024/04/15 13:37:14;;;;;;;5.93;1.63;;;;;;;;;;6370491;22;20545;-88
2024/04/15 13:39:42;;;;;;;4.50;1.65;;;;;;;;;;6371282;22;20432;-88
2024/04/15 13:42:09;;;;;;;;;;;;;;;;;;6371498;22;20000;-87
2024/04/15 13:44:44;;;;;;;4.53;1.58;;;;;;;;;;6373295;22;19923;-89
2024/04/15 13:47:11;;;;;;;11.60;2.10;;;;;;;;;;6370967;22;20495;-87
2024/04/15 13:49:45;;;;;;;9.23;1.98;;;;;;;;;;6372431;22;20396;-86
2024/04/15 13:52:13;;;;;;;;;;;;;;;;;;6374003;22;20011;-86
2024/04/15 13:54:41;;;;;;;7.25;1.70;;;;;;;;;;6375860;22;20129;-86
2024/04/15 13:57:14;;;;;;;12.73;2.40;;;;;;;;;;6372413;22;20023;-87
2024/04/15 13:59:42;;;;;;;8.38;2.00;;;;;;;;;;6375387;22;20018;-87
2024/04/15 14:02:15;;;;;;;14.40;2.67;;;;;;;;;;6374463;22;20590;-86
2024/04/15 14:04:43;;;;;;;10.35;1.60;;;;;;;;;;6371973;22;20093;-85
2024/04/15 14:07:10;;;;;;;6.65;2.10;;;;;;;;;;6373027;22;19999;-86
2024/04/15 14:09:44;;;;;;;9.35;1.95;;;;;;;;;;6374844;22;20019;-85
2024/04/15 14:12:12;;;;;;;;;;;;;;;;;;6372206;22;20336;-85
2024/04/15 14:14:46;;;;;;;9.35;2.20;;;;;;;;;;6372327;22;19923;-85
2024/04/15 14:17:14;;;;;;;6.07;2.28;;;;;;;;;;6374578;22;20039;-85
2024/04/15 14:19:42;;;;;;;6.55;1.95;;;;;;;;;;6372513;22;20003;-85
2024/04/15 14:22:22;;;;;;;8.55;2.15;;;;;;;;;;6371885;22;20011;-85
2024/04/15 14:24:50;;;;;;;5.93;2.13;;;;;;;;;;6371616;22;20003;-84
2024/04/15 14:27:23;;;;;;;7.82;1.80;;;;;;;;;;6372913;22;20422;-85
2024/04/15 14:29:51;;;;;;;;;;;;;;;;;;6374308;22;20148;-85
2024/04/15 14:32:18;;;;;;;8.82;2.05;;;;;;;;;;6373237;22;19991;-85
2024/04/15 14:34:52;;;;;;;20.33;2.80;;;;;;;;;;6373909;22;20018;-86
2024/04/15 14:37:20;;;;;;;;;;;;;;;;;;6375197;22;20006;-85
2024/04/15 14:39:48;;;;;;;8.02;1.90;;;;;;;;;;6374144;22;19923;-86
2024/04/15 14:42:38;;;;;;;6.95;2.10;;;;;;;;;;6372498;22;20322;-86
2024/04/15 14:45:05;;;;;;;10.63;2.30;;;;;;;;;;6374981;22;20003;-85
2024/04/15 14:47:40;;;;;;;6.47;1.75;;;;;;;;;;6376649;22;20464;-85
2024/04/15 14:50:08;;;;;;;7.00;1.88;;;;;;;;;;6375994;22;20074;-85
2024/04/15 14:52:35;;;;;;;7.78;2.17;;;;;;;;;;6375195;22;20014;-85
2024/04/15 14:55:09;;;;;;;8.25;1.80;;;;;;;;;;6371823;22;20015;-85
2024/04/15 14:57:37;;;;;;;7.80;2.03;;;;;;;;;;6371365;22;20356;-85
2024/04/15 15:00:13;;;;;;;8.52;2.30;;;;;;;;;;6371888;22;20013;-86
2024/04/15 15:02:40;;;;;;;10.18;2.03;;;;;;;;;;6371237;22;20064;-86
2024/04/15 15:05:08;;;;;;;;;;;;;;;;;;6370979;22;20375;-86
2024/04/15 15:07:48;;;;;;;6.13;2.00;;;;;;;;;;6368282;22;19930;-86
2024/04/15 15:10:16;;;;;;;7.10;1.65;;;;;;;;;;6372730;22;20186;-84